createdAt,value
2023-04-08T00:02:27.697Z,13.83
2023-04-08T00:04:56.129Z,14.33
2023-04-08T00:07:24.603Z,15.63
2023-04-08T00:09:53.900Z,11.70
2023-04-08T00:12:21.796Z,14.23
2023-04-08T00:14:49.748Z,13.67
2023-04-08T00:17:17.970Z,14.00
2023-04-08T00:19:46.162Z,14.53
2023-04-08T00:22:14.029Z,15.40
2023-04-08T00:24:42.051Z,12.73
2023-04-08T00:27:11.325Z,13.43
2023-04-08T00:29:39.301Z,11.80
2023-04-08T00:32:07.237Z,14.73
2023-04-08T00:34:35.579Z,10.43
2023-04-08T00:37:03.470Z,15.47
2023-04-08T00:39:31.295Z,14.97
2023-04-08T00:41:59.214Z,13.80
2023-04-08T00:44:28.572Z,12.97
2023-04-08T00:46:56.646Z,13.47
2023-04-08T00:49:24.650Z,13.63
2023-04-08T00:51:52.602Z,13.53
2023-04-08T00:54:20.608Z,15.10
2023-04-08T00:56:48.784Z,13.97
2023-04-08T00:59:19.495Z,12.27
2023-04-08T01:01:54.591Z,14.03
2023-04-08T01:04:30.548Z,13.83
2023-04-08T01:07:04.338Z,15.40
2023-04-08T01:09:36.751Z,17.87
2023-04-08T01:12:08.761Z,18.80
2023-04-08T01:14:41.264Z,15.00
2023-04-08T01:17:11.422Z,11.17
2023-04-08T01:19:42.195Z,16.97
2023-04-08T01:22:23.777Z,15.73
2023-04-08T01:24:54.421Z,17.07
2023-04-08T01:27:23.771Z,13.50
2023-04-08T01:29:52.104Z,16.17
2023-04-08T01:32:20.652Z,17.77
2023-04-08T01:34:49.307Z,13.47
2023-04-08T01:37:18.155Z,13.30
2023-04-08T01:39:46.695Z,11.20
2023-04-08T01:42:15.362Z,20.87
2023-04-08T01:44:45.520Z,18.17
2023-04-08T01:47:15.144Z,20.03
2023-04-08T01:49:44.227Z,19.60
2023-04-08T01:52:13.748Z,16.30
2023-04-08T01:54:41.719Z,16.20
2023-04-08T01:57:13.088Z,15.63
2023-04-08T01:59:42.048Z,17.00
2023-04-08T02:02:14.464Z,15.43
2023-04-08T02:04:42.726Z,15.57
2023-04-08T02:07:10.934Z,18.30
2023-04-08T02:09:38.973Z,21.87
2023-04-08T02:12:07.203Z,19.57
2023-04-08T02:14:35.284Z,15.97
2023-04-08T02:17:08.193Z,21.50
2023-04-08T02:19:45.319Z,17.60
2023-04-08T02:22:18.676Z,20.60
2023-04-08T02:24:47.988Z,21.27
2023-04-08T02:27:17.344Z,22.03
2023-04-08T02:29:47.071Z,19.57
2023-04-08T02:32:17.691Z,19.87
2023-04-08T02:34:48.515Z,23.47
2023-04-08T02:37:16.463Z,15.60
2023-04-08T02:39:44.415Z,18.60
2023-04-08T02:42:12.298Z,20.57
2023-04-08T02:44:40.305Z,18.77
2023-04-08T02:47:08.252Z,21.27
2023-04-08T02:49:36.095Z,20.97
2023-04-08T02:52:05.446Z,19.57
2023-04-08T02:54:33.294Z,20.37
2023-04-08T02:57:01.205Z,17.07
2023-04-08T02:59:29.079Z,17.60
2023-04-08T03:01:57.801Z,19.83
2023-04-08T03:04:25.905Z,22.27
2023-04-08T03:06:53.850Z,19.40
2023-04-08T03:09:23.066Z,20.70
2023-04-08T03:11:53.209Z,23.03
2023-04-08T03:14:21.860Z,16.47
2023-04-08T03:16:50.003Z,15.80
2023-04-08T03:19:18.977Z,17.80
2023-04-08T03:21:46.835Z,19.90
2023-04-08T03:24:14.725Z,15.17
2023-04-08T03:26:43.917Z,21.10
2023-04-08T03:29:11.907Z,23.63
2023-04-08T03:31:40.054Z,18.70
2023-04-08T03:34:07.976Z,25.27
2023-04-08T03:36:35.979Z,17.63
2023-04-08T03:39:06.282Z,17.73
2023-04-08T03:41:34.330Z,20.20
2023-04-08T03:44:03.657Z,19.73
2023-04-08T03:46:31.627Z,18.60
2023-04-08T03:48:59.569Z,18.40
2023-04-08T03:51:28.604Z,20.73
2023-04-08T03:53:56.440Z,19.67
2023-04-08T03:56:25.114Z,19.83
2023-04-08T03:58:53.049Z,21.00
2023-04-08T04:01:22.309Z,17.93
2023-04-08T04:03:50.325Z,16.70
2023-04-08T04:06:18.335Z,19.03
2023-04-08T04:08:46.475Z,21.33
2023-04-08T04:11:14.357Z,19.83
2023-04-08T04:13:42.231Z,22.77
2023-04-08T04:16:10.162Z,19.07
2023-04-08T04:18:39.582Z,18.60
2023-04-08T04:21:07.881Z,21.53
2023-04-08T04:23:35.848Z,22.17
2023-04-08T04:26:03.822Z,21.00
2023-04-08T04:28:31.796Z,20.93
2023-04-08T04:30:59.701Z,25.00
2023-04-08T04:33:27.598Z,19.20
2023-04-08T04:35:57.123Z,23.80
2023-04-08T04:38:25.124Z,21.03
2023-04-08T04:40:53.044Z,20.73
2023-04-08T04:43:21.039Z,25.87
2023-04-08T04:45:48.923Z,21.63
2023-04-08T04:48:16.828Z,23.07
2023-04-08T04:50:44.722Z,24.63
2023-04-08T04:53:14.022Z,22.37
2023-04-08T04:55:41.996Z,20.77
2023-04-08T04:58:09.914Z,27.40
2023-04-08T05:00:37.767Z,21.73
2023-04-08T05:03:06.023Z,26.27
2023-04-08T05:05:34.238Z,25.37
2023-04-08T05:08:02.355Z,22.67
2023-04-08T05:10:31.797Z,25.80
2023-04-08T05:12:59.660Z,22.13
2023-04-08T05:15:27.614Z,25.67
2023-04-08T05:17:55.638Z,21.77
2023-04-08T05:20:23.646Z,24.13
2023-04-08T05:22:51.501Z,25.00
2023-04-08T05:25:19.723Z,23.33
2023-04-08T05:27:49.081Z,26.03
2023-04-08T05:30:17.238Z,24.03
2023-04-08T05:32:45.335Z,25.23
2023-04-08T05:35:13.331Z,23.57
2023-04-08T05:37:41.244Z,20.60
2023-04-08T05:40:10.088Z,25.07
2023-04-08T05:42:38.024Z,27.57
2023-04-08T05:45:08.578Z,27.30
2023-04-08T05:47:36.518Z,26.60
2023-04-08T05:50:04.487Z,25.10
2023-04-08T05:52:32.515Z,23.27
2023-04-08T05:55:00.585Z,22.63
2023-04-08T05:57:28.516Z,22.67
2023-04-08T05:59:56.389Z,25.47
2023-04-08T06:02:25.894Z,23.47
2023-04-08T06:04:54.117Z,23.43
2023-04-08T06:07:22.010Z,22.07
2023-04-08T06:09:49.913Z,23.87
2023-04-08T06:12:17.841Z,20.73
2023-04-08T06:14:46.026Z,25.70
2023-04-08T06:17:14.000Z,24.33
2023-04-08T06:19:43.360Z,23.70
2023-04-08T06:22:11.213Z,25.17
2023-04-08T06:24:39.103Z,25.93
2023-04-08T06:27:07.808Z,26.17
2023-04-08T06:29:35.958Z,22.27
2023-04-08T06:32:03.939Z,25.87
2023-04-08T06:34:31.908Z,26.57
2023-04-08T06:37:01.155Z,27.23
2023-04-08T06:39:29.077Z,25.37
2023-04-08T06:41:58.069Z,26.53
2023-04-08T06:44:26.314Z,22.70
2023-04-08T06:46:54.213Z,28.40
2023-04-08T06:49:22.063Z,29.47
2023-04-08T06:51:50.350Z,25.60
2023-04-08T06:54:19.740Z,25.63
2023-04-08T06:56:47.897Z,31.20
2023-04-08T06:59:15.885Z,27.23
2023-04-08T07:01:44.058Z,26.20
2023-04-08T07:04:12.387Z,22.23
2023-04-08T07:06:40.348Z,21.83
2023-04-08T07:09:08.282Z,28.47
2023-04-08T07:11:37.539Z,26.67
2023-04-08T07:14:05.501Z,25.70
2023-04-08T07:16:33.479Z,28.83
2023-04-08T07:19:01.952Z,28.73
2023-04-08T07:21:31.086Z,29.90
2023-04-08T07:23:58.996Z,26.30
2023-04-08T07:26:28.424Z,33.13
2023-04-08T07:28:57.898Z,26.67
2023-04-08T07:31:26.043Z,29.33
2023-04-08T07:33:54.073Z,29.53
2023-04-08T07:36:22.105Z,31.07
2023-04-08T07:38:50.293Z,28.33
2023-04-08T07:41:18.447Z,33.23
2023-04-08T07:43:46.392Z,34.17
2023-04-08T07:46:15.693Z,30.20
2023-04-08T07:48:43.699Z,27.07
2023-04-08T07:51:11.988Z,33.23
2023-04-08T07:53:41.177Z,33.20
2023-04-08T07:56:13.593Z,32.07
2023-04-08T07:58:42.129Z,30.37
2023-04-08T08:01:19.964Z,29.47
2023-04-08T08:03:48.845Z,30.93
2023-04-08T08:06:17.244Z,30.33
2023-04-08T08:08:45.740Z,27.23
2023-04-08T08:11:13.974Z,28.73
2023-04-08T08:13:42.027Z,30.87
2023-04-08T08:16:11.519Z,27.00
2023-04-08T08:18:42.060Z,28.20
2023-04-08T08:21:10.387Z,31.43
2023-04-08T08:23:38.683Z,29.37
2023-04-08T08:26:10.035Z,25.53
2023-04-08T08:28:38.473Z,28.10
2023-04-08T08:31:06.878Z,25.17
2023-04-08T08:33:35.480Z,27.67
2023-04-08T08:36:05.969Z,28.03
2023-04-08T08:38:33.926Z,28.07
2023-04-08T08:41:04.163Z,27.80
2023-04-08T08:43:33.498Z,27.80
2023-04-08T08:46:01.836Z,26.40
2023-04-08T08:48:30.210Z,26.50
2023-04-08T08:50:58.536Z,25.07
2023-04-08T08:53:34.195Z,25.97
2023-04-08T08:58:34.777Z,25.10
2023-04-08T09:01:02.752Z,23.60
2023-04-08T09:03:30.954Z,24.30
2023-04-08T09:06:00.218Z,27.97
2023-04-08T09:08:31.858Z,24.97
2023-04-08T09:11:13.866Z,24.33
2023-04-08T09:13:42.243Z,28.07
2023-04-08T09:16:11.582Z,24.57
2023-04-08T09:18:41.038Z,27.40
2023-04-08T09:21:09.637Z,25.67
2023-04-08T09:23:43.972Z,24.97
2023-04-08T09:26:14.025Z,25.83
2023-04-08T09:28:43.071Z,24.60
2023-04-08T09:31:21.041Z,26.57
2023-04-08T09:33:50.148Z,24.60
2023-04-08T09:36:18.407Z,24.37
2023-04-08T09:38:48.042Z,27.80
2023-04-08T09:41:17.082Z,27.13
2023-04-08T09:43:50.378Z,26.00
2023-04-08T09:46:20.178Z,28.20
2023-04-08T09:48:54.309Z,31.43
2023-04-08T09:51:25.088Z,30.80
2023-04-08T09:54:00.628Z,29.60
2023-04-08T09:56:36.902Z,28.33
2023-04-08T09:59:11.794Z,32.87
2023-04-08T10:01:41.472Z,30.63
2023-04-08T10:04:16.115Z,36.70
2023-04-08T10:06:44.506Z,40.43
2023-04-08T10:09:13.986Z,41.10
2023-04-08T10:11:41.918Z,40.30
2023-04-08T10:14:11.453Z,48.67
2023-04-08T10:16:39.397Z,48.93
2023-04-08T10:19:42.122Z,49.33
2023-04-08T10:22:47.920Z,45.30
2023-04-08T10:25:36.005Z,49.30
2023-04-08T10:28:27.167Z,48.83
2023-04-08T10:30:56.494Z,44.13
2023-04-08T10:33:26.087Z,42.90
2023-04-08T10:36:02.885Z,37.07
2023-04-08T10:38:31.401Z,39.13
2023-04-08T10:41:00.678Z,40.97
2023-04-08T10:43:33.927Z,38.00
2023-04-08T10:46:02.016Z,36.83
2023-04-08T10:48:30.117Z,39.77
2023-04-08T10:51:00.649Z,34.20
2023-04-08T10:53:29.682Z,32.30
2023-04-08T10:56:07.214Z,29.97
2023-04-08T10:58:36.466Z,27.30
2023-04-08T11:01:06.782Z,28.23
2023-04-08T11:03:35.884Z,25.97
2023-04-08T11:06:04.356Z,20.60
2023-04-08T11:08:33.336Z,22.57
2023-04-08T11:11:02.428Z,23.37
2023-04-08T11:13:32.416Z,17.83
2023-04-08T11:16:02.612Z,19.10
2023-04-08T11:18:31.456Z,22.57
2023-04-08T11:21:00.341Z,19.53
2023-04-08T11:23:28.744Z,19.03
2023-04-08T11:25:57.166Z,20.50
2023-04-08T11:28:25.948Z,19.03
2023-04-08T11:30:55.717Z,22.73
2023-04-08T11:33:26.445Z,22.27
2023-04-08T11:35:55.007Z,20.07
2023-04-08T11:38:24.549Z,18.40
2023-04-08T11:40:56.064Z,18.27
2023-04-08T11:43:24.383Z,22.93
2023-04-08T11:45:52.456Z,21.30
2023-04-08T11:48:21.708Z,24.00
2023-04-08T11:50:51.665Z,22.83
2023-04-08T11:53:20.682Z,22.50
2023-04-08T11:55:49.510Z,26.53
2023-04-08T11:58:17.981Z,26.30
2023-04-08T12:00:47.428Z,28.53
2023-04-08T12:03:15.718Z,24.97
2023-04-08T12:05:45.054Z,27.90
2023-04-08T12:08:12.983Z,30.83
2023-04-08T12:10:40.857Z,34.03
2023-04-08T12:13:08.711Z,29.00
2023-04-08T12:15:36.584Z,31.33
2023-04-08T12:18:05.779Z,28.37
2023-04-08T12:20:33.713Z,31.63
2023-04-08T12:23:02.987Z,28.97
2023-04-08T12:25:31.296Z,32.50
2023-04-08T12:27:59.186Z,27.20
2023-04-08T12:30:27.096Z,28.33
2023-04-08T12:32:55.341Z,25.97
2023-04-08T12:35:23.494Z,30.00
2023-04-08T12:37:51.526Z,27.87
2023-04-08T12:40:20.954Z,29.60
2023-04-08T12:42:48.835Z,26.60
2023-04-08T12:45:16.781Z,28.60
2023-04-08T12:47:44.746Z,24.60
2023-04-08T12:50:12.716Z,26.23
2023-04-08T12:52:40.588Z,23.67
2023-04-08T12:55:09.170Z,25.60
2023-04-08T12:57:38.403Z,23.43
2023-04-08T13:00:07.561Z,27.13
2023-04-08T13:02:35.585Z,27.03
2023-04-08T13:05:03.637Z,25.03
2023-04-08T13:07:31.509Z,24.13
2023-04-08T13:09:59.456Z,25.33
2023-04-08T13:12:27.300Z,23.87
2023-04-08T13:14:56.644Z,26.43
2023-04-08T13:17:24.642Z,21.47
2023-04-08T13:19:52.532Z,20.33
2023-04-08T13:22:20.460Z,27.63
2023-04-08T13:24:48.851Z,23.43
2023-04-08T13:27:17.492Z,23.38
2023-04-08T13:29:45.427Z,26.67
2023-04-08T13:32:14.822Z,27.03
2023-04-08T13:34:43.740Z,24.37
2023-04-08T13:37:11.884Z,24.40
2023-04-08T13:39:39.754Z,27.57
2023-04-08T13:42:07.857Z,23.93
2023-04-08T13:44:35.789Z,28.17
2023-04-08T13:47:03.650Z,30.77
2023-04-08T13:49:32.966Z,27.43
2023-04-08T13:52:00.912Z,21.30
2023-04-08T13:54:28.893Z,21.37
2023-04-08T13:56:57.550Z,19.77
2023-04-08T13:59:25.675Z,19.80
2023-04-08T14:01:55.305Z,17.60
2023-04-08T14:04:24.265Z,13.70
2023-04-08T14:06:53.588Z,12.73
2023-04-08T14:09:21.766Z,11.27
2023-04-08T14:11:49.700Z,13.67
2023-04-08T14:14:17.610Z,10.30
2023-04-08T14:16:45.576Z,9.67
2023-04-08T14:19:13.613Z,9.40
2023-04-08T14:21:41.569Z,8.80
2023-04-08T14:24:10.896Z,8.40
2023-04-08T14:26:39.035Z,7.67
2023-04-08T14:29:08.281Z,6.17
2023-04-08T14:31:36.560Z,4.47
2023-04-08T14:34:04.974Z,4.77
2023-04-08T14:36:33.041Z,7.07
2023-04-08T14:39:01.174Z,5.40
2023-04-08T14:41:30.524Z,5.97
2023-04-08T14:43:58.507Z,6.47
2023-04-08T14:46:29.093Z,5.87
2023-04-08T14:48:57.308Z,6.23
2023-04-08T14:51:25.325Z,7.13
2023-04-08T14:53:53.396Z,6.37
2023-04-08T14:56:21.642Z,5.90
2023-04-08T14:58:51.285Z,7.40
2023-04-08T15:01:19.501Z,7.00
2023-04-08T15:03:48.097Z,12.50
2023-04-08T15:06:17.760Z,6.87
2023-04-08T15:08:45.723Z,7.70
2023-04-08T15:11:13.741Z,7.40
2023-04-08T15:13:41.712Z,6.27
2023-04-08T15:16:12.195Z,5.93
2023-04-08T15:18:40.596Z,7.43
2023-04-08T15:21:09.013Z,5.27
2023-04-08T15:23:41.785Z,6.27
2023-04-08T15:26:10.516Z,5.93
2023-04-08T15:28:40.252Z,5.93
2023-04-08T15:31:08.297Z,4.40
2023-04-08T15:33:41.170Z,8.33
2023-04-08T15:36:09.308Z,7.93
2023-04-08T15:38:37.317Z,5.57
2023-04-08T15:41:05.456Z,4.60
2023-04-08T15:43:33.476Z,6.70
2023-04-08T15:46:01.441Z,5.70
2023-04-08T15:48:29.377Z,6.47
2023-04-08T15:50:58.864Z,5.73
2023-04-08T15:53:26.778Z,7.30
2023-04-08T15:55:54.672Z,6.13
2023-04-08T15:58:22.586Z,8.20
2023-04-08T16:00:52.103Z,5.30
2023-04-08T16:03:20.126Z,6.40
2023-04-08T16:05:48.069Z,9.87
2023-04-08T16:08:17.345Z,7.80
2023-04-08T16:10:45.319Z,8.90
2023-04-08T16:13:13.890Z,10.50
2023-04-08T16:15:41.832Z,10.67
2023-04-08T16:18:09.785Z,11.27
2023-04-08T16:20:38.708Z,11.43
2023-04-08T16:23:06.647Z,13.03
2023-04-08T16:25:36.541Z,11.57
2023-04-08T16:28:04.547Z,15.50
2023-04-08T16:30:34.801Z,12.40
2023-04-08T16:33:02.972Z,13.53
2023-04-08T16:35:30.888Z,12.93
2023-04-08T16:37:58.834Z,11.40
2023-04-08T16:40:27.279Z,11.23
2023-04-08T16:42:56.916Z,12.60
2023-04-08T16:45:24.783Z,12.43
2023-04-08T16:47:52.752Z,13.40
2023-04-08T16:50:20.760Z,13.17
2023-04-08T16:52:49.791Z,14.33
2023-04-08T16:55:17.997Z,16.33
2023-04-08T16:57:46.258Z,10.43
2023-04-08T17:00:18.093Z,10.37
2023-04-08T17:02:47.834Z,10.77
2023-04-08T17:05:16.385Z,8.23
2023-04-08T17:07:44.378Z,9.00
2023-04-08T17:10:13.279Z,8.40
2023-04-08T17:12:41.559Z,7.80
2023-04-08T17:15:10.794Z,9.00
2023-04-08T17:17:40.330Z,11.67
2023-04-08T17:20:09.447Z,9.63
2023-04-08T17:22:37.368Z,10.13
2023-04-08T17:25:05.732Z,10.93
2023-04-08T17:27:33.560Z,10.00
2023-04-08T17:30:01.521Z,12.47
2023-04-08T17:32:29.493Z,12.10
2023-04-08T17:34:58.831Z,12.87
2023-04-08T17:37:26.742Z,12.80
2023-04-08T17:39:54.572Z,10.50
2023-04-08T17:42:23.627Z,11.57
2023-04-08T17:44:51.557Z,12.67
2023-04-08T17:47:21.074Z,11.03
2023-04-08T17:49:49.092Z,13.83
2023-04-08T17:52:18.418Z,10.30
2023-04-08T17:54:46.367Z,11.20
2023-04-08T17:57:14.204Z,11.57
2023-04-08T17:59:42.151Z,12.40
2023-04-08T18:02:10.177Z,11.57
2023-04-08T18:04:38.203Z,13.70
2023-04-08T18:07:06.213Z,11.73
2023-04-08T18:09:35.494Z,10.07
2023-04-08T18:12:03.401Z,11.70
2023-04-08T18:14:31.312Z,13.47
2023-04-08T18:16:59.187Z,12.07
2023-04-08T18:19:27.298Z,11.40
2023-04-08T18:21:55.640Z,12.40
2023-04-08T18:24:23.696Z,11.10
2023-04-08T18:26:57.945Z,13.50
2023-04-08T18:29:31.663Z,10.87
2023-04-08T18:31:59.562Z,11.50
2023-04-08T18:34:27.502Z,12.57
2023-04-08T18:36:55.370Z,12.27
2023-04-08T18:39:23.222Z,10.57
2023-04-08T18:41:52.552Z,11.50
2023-04-08T18:44:20.627Z,14.23
2023-04-08T18:46:48.618Z,14.70
2023-04-08T18:49:16.547Z,17.10
2023-04-08T18:51:59.011Z,12.87
2023-04-08T18:54:30.193Z,13.20
2023-04-08T18:56:59.696Z,12.33
2023-04-08T18:59:28.858Z,11.87
2023-04-08T19:01:58.193Z,12.77
2023-04-08T19:04:26.386Z,12.83
2023-04-08T19:06:54.478Z,13.47
2023-04-08T19:09:22.403Z,12.37
2023-04-08T19:11:50.446Z,14.17
2023-04-08T19:14:19.980Z,13.07
2023-04-08T19:16:47.807Z,11.67
2023-04-08T19:19:16.132Z,12.33
2023-04-08T19:21:44.083Z,12.13
2023-04-08T19:24:12.073Z,12.87
2023-04-08T19:26:39.974Z,14.03
2023-04-08T19:29:09.359Z,12.50
2023-04-08T19:31:38.886Z,15.83
2023-04-08T19:34:06.843Z,14.57
2023-04-08T19:36:34.765Z,13.27
2023-04-08T19:39:03.657Z,12.83
2023-04-08T19:41:31.561Z,13.07
2023-04-08T19:43:59.497Z,12.87
2023-04-08T19:46:29.164Z,15.20
2023-04-08T19:48:58.981Z,13.83
2023-04-08T19:51:29.186Z,13.30
2023-04-08T19:53:57.199Z,12.83
2023-04-08T19:56:25.537Z,13.67
2023-04-08T19:58:53.697Z,13.83
2023-04-08T20:01:22.228Z,14.57
2023-04-08T20:03:52.248Z,12.93
2023-04-08T20:06:22.992Z,15.30
2023-04-08T20:08:53.151Z,13.93
2023-04-08T20:11:21.672Z,14.60
2023-04-08T20:13:51.251Z,13.67
2023-04-08T20:16:19.188Z,14.20
2023-04-08T20:18:47.266Z,12.73
2023-04-08T20:21:15.136Z,15.00
2023-04-08T20:23:45.121Z,14.83
2023-04-08T20:26:13.465Z,15.50
2023-04-08T20:28:41.977Z,14.70
2023-04-08T20:31:10.372Z,14.60
2023-04-08T20:33:43.556Z,15.23
2023-04-08T20:36:13.614Z,15.43
2023-04-08T20:38:42.632Z,17.73
2023-04-08T20:41:12.293Z,15.60
2023-04-08T20:43:40.357Z,16.43
2023-04-08T20:46:09.162Z,15.57
2023-04-08T20:48:37.068Z,16.67
2023-04-08T20:51:05.332Z,18.53
2023-04-08T20:53:34.487Z,19.27
2023-04-08T20:56:02.902Z,20.23
2023-04-08T20:58:32.267Z,20.30
2023-04-08T21:01:00.488Z,19.30
2023-04-08T21:03:28.735Z,18.57
2023-04-08T21:05:56.842Z,19.97
2023-04-08T21:08:24.782Z,17.33
2023-04-08T21:10:54.195Z,17.50
2023-04-08T21:13:22.107Z,18.70
2023-04-08T21:15:51.433Z,18.90
2023-04-08T21:18:19.316Z,20.33
2023-04-08T21:20:47.222Z,18.97
2023-04-08T21:23:15.294Z,18.37
2023-04-08T21:25:43.234Z,19.27
2023-04-08T21:28:11.119Z,19.77
2023-04-08T21:30:39.101Z,19.53
2023-04-08T21:33:08.396Z,19.07
2023-04-08T21:35:36.471Z,21.30
2023-04-08T21:38:04.457Z,18.33
2023-04-08T21:40:32.505Z,20.57
2023-04-08T21:43:00.423Z,18.47
2023-04-08T21:45:28.949Z,19.73
2023-04-08T21:47:56.998Z,18.93
2023-04-08T21:50:26.398Z,20.27
2023-04-08T21:52:54.378Z,20.77
2023-04-08T21:55:22.545Z,21.70
2023-04-08T21:57:50.668Z,19.57
2023-04-08T22:00:18.719Z,18.47
2023-04-08T22:02:46.887Z,21.13
2023-04-08T22:05:15.028Z,21.27
2023-04-08T22:07:44.338Z,22.10
2023-04-08T22:10:12.875Z,19.87
2023-04-08T22:12:40.908Z,19.60
2023-04-08T22:15:10.306Z,19.83
2023-04-08T22:17:38.256Z,24.67
2023-04-08T22:20:07.310Z,19.30
2023-04-08T22:22:35.238Z,17.90
2023-04-08T22:25:04.675Z,22.37
2023-04-08T22:27:33.254Z,18.67
2023-04-08T22:30:01.126Z,19.83
2023-04-08T22:32:29.210Z,19.30
2023-04-08T22:34:57.210Z,18.87
2023-04-08T22:37:25.569Z,22.23
2023-04-08T22:39:53.497Z,18.67
2023-04-08T22:42:22.756Z,18.97
2023-04-08T22:44:50.923Z,19.23
2023-04-08T22:47:19.179Z,21.73
2023-04-08T22:49:47.087Z,18.50
2023-04-08T22:52:14.959Z,18.70
2023-04-08T22:54:42.966Z,16.43
2023-04-08T22:57:10.909Z,21.00
2023-04-08T22:59:40.182Z,18.17
2023-04-08T23:02:08.250Z,21.60
2023-04-08T23:04:36.223Z,19.63
2023-04-08T23:07:04.183Z,20.03
2023-04-08T23:09:32.086Z,19.60
2023-04-08T23:12:01.374Z,21.80
2023-04-08T23:14:29.372Z,20.60
2023-04-08T23:16:58.677Z,18.07
2023-04-08T23:19:26.587Z,20.20
2023-04-08T23:21:54.494Z,20.33
2023-04-08T23:24:22.411Z,20.60
2023-04-08T23:26:50.391Z,21.20
2023-04-08T23:29:18.805Z,21.73
2023-04-08T23:31:46.841Z,24.37
2023-04-08T23:34:16.098Z,20.43
2023-04-08T23:36:44.075Z,21.13
2023-04-08T23:39:12.032Z,21.17
2023-04-08T23:41:39.989Z,21.10
2023-04-08T23:44:07.901Z,20.33
2023-04-08T23:46:35.873Z,21.50
2023-04-08T23:49:03.831Z,19.03
2023-04-08T23:51:33.077Z,21.30
2023-04-08T23:54:00.902Z,23.03
2023-04-08T23:56:28.764Z,20.90
2023-04-08T23:58:56.737Z,18.37
